sensor_id;sensor_type;location;lat;lon;timestamp;P1;durP1;ratioP1;P2;durP2;ratioP2
71106;SDS011;58763;47.982;11.516;2022-07-22T00:01:38;13.63;;;11.65;;
71106;SDS011;58763;47.982;11.516;2022-07-22T00:04:03;14.48;;;11.27;;
71106;SDS011;58763;47.982;11.516;2022-07-22T00:06:29;15.38;;;11.57;;
71106;SDS011;58763;47.982;11.516;2022-07-22T00:08:55;15.45;;;11.82;;
71106;SDS011;58763;47.982;11.516;2022-07-22T00:11:21;15.77;;;11.30;;
71106;SDS011;58763;47.982;11.516;2022-07-22T00:13:47;15.35;;;11.52;;
71106;SDS011;58763;47.982;11.516;2022-07-22T00:16:12;15.10;;;11.15;;
71106;SDS011;58763;47.982;11.516;2022-07-22T00:18:38;14.18;;;10.98;;
71106;SDS011;58763;47.982;11.516;2022-07-22T00:21:03;13.75;;;11.07;;
71106;SDS011;58763;47.982;11.516;2022-07-22T00:23:29;12.95;;;10.40;;
71106;SDS011;58763;47.982;11.516;2022-07-22T00:25:54;13.57;;;10.63;;
71106;SDS011;58763;47.982;11.516;2022-07-22T00:28:20;14.98;;;10.85;;
71106;SDS011;58763;47.982;11.516;2022-07-22T00:30:45;14.85;;;11.30;;
71106;SDS011;58763;47.982;11.516;2022-07-22T00:33:11;14.85;;;11.45;;
71106;SDS011;58763;47.982;11.516;2022-07-22T00:35:36;16.92;;;11.90;;
71106;SDS011;58763;47.982;11.516;2022-07-22T00:38:01;15.45;;;11.95;;
71106;SDS011;58763;47.982;11.516;2022-07-22T00:40:27;16.45;;;12.73;;
71106;SDS011;58763;47.982;11.516;2022-07-22T00:42:53;18.25;;;12.65;;
71106;SDS011;58763;47.982;11.516;2022-07-22T00:45:18;15.10;;;11.95;;
71106;SDS011;58763;47.982;11.516;2022-07-22T00:47:44;16.50;;;12.50;;
71106;SDS011;58763;47.982;11.516;2022-07-22T00:50:09;19.20;;;12.65;;
71106;SDS011;58763;47.982;11.516;2022-07-22T00:52:35;14.55;;;11.45;;
71106;SDS011;58763;47.982;11.516;2022-07-22T00:55:02;15.45;;;11.48;;
71106;SDS011;58763;47.982;11.516;2022-07-22T00:57:28;14.65;;;10.63;;
71106;SDS011;58763;47.982;11.516;2022-07-22T00:59:53;14.02;;;10.50;;
71106;SDS011;58763;47.982;11.516;2022-07-22T01:02:19;16.50;;;12.43;;
71106;SDS011;58763;47.982;11.516;2022-07-22T01:04:45;14.43;;;10.48;;
71106;SDS011;58763;47.982;11.516;2022-07-22T01:07:10;14.43;;;10.65;;
71106;SDS011;58763;47.982;11.516;2022-07-22T01:09:36;16.00;;;10.50;;
71106;SDS011;58763;47.982;11.516;2022-07-22T01:12:02;14.73;;;10.35;;
71106;SDS011;58763;47.982;11.516;2022-07-22T01:14:28;15.23;;;10.27;;
71106;SDS011;58763;47.982;11.516;2022-07-22T01:16:53;13.80;;;10.73;;
71106;SDS011;58763;47.982;11.516;2022-07-22T01:19:19;15.25;;;10.82;;
71106;SDS011;58763;47.982;11.516;2022-07-22T01:21:44;15.57;;;10.70;;
71106;SDS011;58763;47.982;11.516;2022-07-22T01:24:10;16.95;;;11.35;;
71106;SDS011;58763;47.982;11.516;2022-07-22T01:26:35;15.55;;;11.00;;
71106;SDS011;58763;47.982;11.516;2022-07-22T01:29:01;14.73;;;10.70;;
71106;SDS011;58763;47.982;11.516;2022-07-22T01:31:27;14.93;;;11.30;;
71106;SDS011;58763;47.982;11.516;2022-07-22T01:33:53;17.38;;;11.23;;
71106;SDS011;58763;47.982;11.516;2022-07-22T01:36:19;16.88;;;11.52;;
71106;SDS011;58763;47.982;11.516;2022-07-22T01:38:44;16.33;;;12.02;;
71106;SDS011;58763;47.982;11.516;2022-07-22T01:41:10;16.27;;;11.48;;
71106;SDS011;58763;47.982;11.516;2022-07-22T01:43:36;17.13;;;11.10;;
71106;SDS011;58763;47.982;11.516;2022-07-22T01:46:01;16.00;;;11.77;;
71106;SDS011;58763;47.982;11.516;2022-07-22T01:48:27;19.25;;;12.73;;
71106;SDS011;58763;47.982;11.516;2022-07-22T01:50:52;14.75;;;11.13;;
71106;SDS011;58763;47.982;11.516;2022-07-22T01:53:18;18.02;;;12.48;;
71106;SDS011;58763;47.982;11.516;2022-07-22T01:55:44;16.55;;;13.27;;
71106;SDS011;58763;47.982;11.516;2022-07-22T01:58:09;14.40;;;12.25;;
71106;SDS011;58763;47.982;11.516;2022-07-22T02:00:35;16.83;;;12.23;;
71106;SDS011;58763;47.982;11.516;2022-07-22T02:03:01;16.90;;;12.45;;
71106;SDS011;58763;47.982;11.516;2022-07-22T02:05:27;14.45;;;11.93;;
71106;SDS011;58763;47.982;11.516;2022-07-22T02:07:53;14.73;;;11.40;;
71106;SDS011;58763;47.982;11.516;2022-07-22T02:10:23;14.48;;;11.38;;
71106;SDS011;58763;47.982;11.516;2022-07-22T02:12:48;14.18;;;10.82;;
71106;SDS011;58763;47.982;11.516;2022-07-22T02:15:14;17.58;;;11.75;;
71106;SDS011;58763;47.982;11.516;2022-07-22T02:17:39;17.75;;;10.80;;
71106;SDS011;58763;47.982;11.516;2022-07-22T02:20:05;14.25;;;11.52;;
71106;SDS011;58763;47.982;11.516;2022-07-22T02:22:31;15.52;;;11.07;;
71106;SDS011;58763;47.982;11.516;2022-07-22T02:24:56;17.35;;;11.70;;
71106;SDS011;58763;47.982;11.516;2022-07-22T02:27:21;13.20;;;10.45;;
71106;SDS011;58763;47.982;11.516;2022-07-22T02:29:47;17.40;;;11.48;;
71106;SDS011;58763;47.982;11.516;2022-07-22T02:32:12;15.48;;;11.07;;
71106;SDS011;58763;47.982;11.516;2022-07-22T02:34:38;14.80;;;10.88;;
71106;SDS011;58763;47.982;11.516;2022-07-22T02:37:03;15.35;;;10.95;;
71106;SDS011;58763;47.982;11.516;2022-07-22T02:39:29;14.65;;;10.93;;
71106;SDS011;58763;47.982;11.516;2022-07-22T02:41:54;15.68;;;10.90;;
71106;SDS011;58763;47.982;11.516;2022-07-22T02:44:20;14.18;;;10.65;;
71106;SDS011;58763;47.982;11.516;2022-07-22T02:46:45;17.35;;;10.38;;
71106;SDS011;58763;47.982;11.516;2022-07-22T02:49:10;14.27;;;10.52;;
71106;SDS011;58763;47.982;11.516;2022-07-22T02:51:36;15.63;;;11.07;;
71106;SDS011;58763;47.982;11.516;2022-07-22T02:54:01;15.10;;;10.98;;
71106;SDS011;58763;47.982;11.516;2022-07-22T02:56:27;13.45;;;10.63;;
71106;SDS011;58763;47.982;11.516;2022-07-22T02:58:52;15.75;;;11.00;;
71106;SDS011;58763;47.982;11.516;2022-07-22T03:01:19;15.57;;;10.80;;
71106;SDS011;58763;47.982;11.516;2022-07-22T03:03:45;14.45;;;10.00;;
71106;SDS011;58763;47.982;11.516;2022-07-22T03:06:11;18.02;;;10.75;;
71106;SDS011;58763;47.982;11.516;2022-07-22T03:08:36;13.40;;;9.48;;
71106;SDS011;58763;47.982;11.516;2022-07-22T03:11:02;14.27;;;10.43;;
71106;SDS011;58763;47.982;11.516;2022-07-22T03:13:28;13.95;;;9.73;;
71106;SDS011;58763;47.982;11.516;2022-07-22T03:15:53;16.00;;;11.18;;
71106;SDS011;58763;47.982;11.516;2022-07-22T03:18:19;18.52;;;10.90;;
71106;SDS011;58763;47.982;11.516;2022-07-22T03:20:44;15.02;;;11.68;;
71106;SDS011;58763;47.982;11.516;2022-07-22T03:23:10;15.75;;;11.82;;
71106;SDS011;58763;47.982;11.516;2022-07-22T03:25:35;15.88;;;11.35;;
71106;SDS011;58763;47.982;11.516;2022-07-22T03:28:00;14.80;;;11.70;;
71106;SDS011;58763;47.982;11.516;2022-07-22T03:30:26;14.80;;;10.73;;
71106;SDS011;58763;47.982;11.516;2022-07-22T03:32:51;15.30;;;11.23;;
71106;SDS011;58763;47.982;11.516;2022-07-22T03:35:17;15.18;;;10.95;;
71106;SDS011;58763;47.982;11.516;2022-07-22T03:37:43;16.27;;;12.18;;
71106;SDS011;58763;47.982;11.516;2022-07-22T03:40:09;15.95;;;11.68;;
71106;SDS011;58763;47.982;11.516;2022-07-22T03:42:34;17.10;;;11.43;;
71106;SDS011;58763;47.982;11.516;2022-07-22T03:45:00;15.80;;;12.65;;
71106;SDS011;58763;47.982;11.516;2022-07-22T03:47:26;16.45;;;12.63;;
71106;SDS011;58763;47.982;11.516;2022-07-22T03:49:51;17.23;;;12.27;;
71106;SDS011;58763;47.982;11.516;2022-07-22T03:52:17;18.70;;;12.32;;
71106;SDS011;58763;47.982;11.516;2022-07-22T03:54:43;18.67;;;13.40;;
71106;SDS011;58763;47.982;11.516;2022-07-22T03:57:09;15.52;;;11.45;;
71106;SDS011;58763;47.982;11.516;2022-07-22T03:59:35;16.17;;;12.15;;
71106;SDS011;58763;47.982;11.516;2022-07-22T04:02:01;16.10;;;11.85;;
71106;SDS011;58763;47.982;11.516;2022-07-22T04:04:27;16.98;;;12.05;;
71106;SDS011;58763;47.982;11.516;2022-07-22T04:06:52;13.60;;;10.40;;
71106;SDS011;58763;47.982;11.516;2022-07-22T04:09:18;15.07;;;10.60;;
71106;SDS011;58763;47.982;11.516;2022-07-22T04:11:43;14.30;;;9.55;;
71106;SDS011;58763;47.982;11.516;2022-07-22T04:14:09;14.25;;;10.68;;
71106;SDS011;58763;47.982;11.516;2022-07-22T04:16:34;16.05;;;11.45;;
71106;SDS011;58763;47.982;11.516;2022-07-22T04:19:00;15.60;;;11.38;;
71106;SDS011;58763;47.982;11.516;2022-07-22T04:21:26;17.25;;;10.98;;
71106;SDS011;58763;47.982;11.516;2022-07-22T04:23:52;16.27;;;11.00;;
71106;SDS011;58763;47.982;11.516;2022-07-22T04:26:18;14.30;;;11.07;;
71106;SDS011;58763;47.982;11.516;2022-07-22T04:28:44;16.65;;;10.93;;
71106;SDS011;58763;47.982;11.516;2022-07-22T04:31:09;15.10;;;10.85;;
71106;SDS011;58763;47.982;11.516;2022-07-22T04:33:35;18.90;;;11.15;;
71106;SDS011;58763;47.982;11.516;2022-07-22T04:36:00;14.68;;;11.07;;
71106;SDS011;58763;47.982;11.516;2022-07-22T04:38:26;15.32;;;9.77;;
71106;SDS011;58763;47.982;11.516;2022-07-22T04:40:51;16.33;;;10.75;;
71106;SDS011;58763;47.982;11.516;2022-07-22T04:43:17;17.77;;;10.73;;
71106;SDS011;58763;47.982;11.516;2022-07-22T04:45:42;16.48;;;11.02;;
71106;SDS011;58763;47.982;11.516;2022-07-22T04:48:08;17.15;;;11.35;;
71106;SDS011;58763;47.982;11.516;2022-07-22T04:50:35;15.80;;;10.80;;
71106;SDS011;58763;47.982;11.516;2022-07-22T04:53:01;15.75;;;10.23;;
71106;SDS011;58763;47.982;11.516;2022-07-22T04:55:27;16.20;;;10.38;;
71106;SDS011;58763;47.982;11.516;2022-07-22T04:57:52;14.02;;;10.80;;
71106;SDS011;58763;47.982;11.516;2022-07-22T05:00:17;15.70;;;10.98;;
71106;SDS011;58763;47.982;11.516;2022-07-22T05:02:43;15.13;;;11.25;;
71106;SDS011;58763;47.982;11.516;2022-07-22T05:05:08;14.98;;;10.43;;
71106;SDS011;58763;47.982;11.516;2022-07-22T05:07:34;15.55;;;11.45;;
71106;SDS011;58763;47.982;11.516;2022-07-22T05:09:59;17.33;;;11.73;;
71106;SDS011;58763;47.982;11.516;2022-07-22T05:12:24;13.85;;;10.57;;
71106;SDS011;58763;47.982;11.516;2022-07-22T05:14:50;16.10;;;10.55;;
71106;SDS011;58763;47.982;11.516;2022-07-22T05:17:15;16.13;;;11.30;;
71106;SDS011;58763;47.982;11.516;2022-07-22T05:19:40;15.85;;;11.40;;
71106;SDS011;58763;47.982;11.516;2022-07-22T05:22:06;16.48;;;11.48;;
71106;SDS011;58763;47.982;11.516;2022-07-22T05:24:33;15.70;;;11.50;;
71106;SDS011;58763;47.982;11.516;2022-07-22T05:26:58;13.57;;;10.50;;
71106;SDS011;58763;47.982;11.516;2022-07-22T05:29:24;16.25;;;10.70;;
71106;SDS011;58763;47.982;11.516;2022-07-22T05:31:49;15.27;;;10.55;;
71106;SDS011;58763;47.982;11.516;2022-07-22T05:34:14;14.20;;;10.70;;
71106;SDS011;58763;47.982;11.516;2022-07-22T05:36:40;15.38;;;10.90;;
71106;SDS011;58763;47.982;11.516;2022-07-22T05:39:05;16.00;;;11.63;;
71106;SDS011;58763;47.982;11.516;2022-07-22T05:41:31;16.92;;;11.98;;
71106;SDS011;58763;47.982;11.516;2022-07-22T05:43:56;15.40;;;12.20;;
71106;SDS011;58763;47.982;11.516;2022-07-22T05:46:22;15.80;;;11.55;;
71106;SDS011;58763;47.982;11.516;2022-07-22T05:48:47;16.73;;;12.05;;
71106;SDS011;58763;47.982;11.516;2022-07-22T05:51:13;15.48;;;11.05;;
71106;SDS011;58763;47.982;11.516;2022-07-22T05:53:39;15.93;;;11.50;;
71106;SDS011;58763;47.982;11.516;2022-07-22T05:56:06;19.75;;;12.10;;
71106;SDS011;58763;47.982;11.516;2022-07-22T05:58:32;16.20;;;11.40;;
71106;SDS011;58763;47.982;11.516;2022-07-22T06:00:57;14.75;;;11.45;;
71106;SDS011;58763;47.982;11.516;2022-07-22T06:03:23;14.88;;;10.98;;
71106;SDS011;58763;47.982;11.516;2022-07-22T06:05:49;17.02;;;11.27;;
71106;SDS011;58763;47.982;11.516;2022-07-22T06:08:14;15.80;;;11.60;;
71106;SDS011;58763;47.982;11.516;2022-07-22T06:10:40;18.48;;;11.50;;
71106;SDS011;58763;47.982;11.516;2022-07-22T06:13:05;14.63;;;11.10;;
71106;SDS011;58763;47.982;11.516;2022-07-22T06:15:31;13.25;;;10.57;;
71106;SDS011;58763;47.982;11.516;2022-07-22T06:17:56;14.90;;;10.80;;
71106;SDS011;58763;47.982;11.516;2022-07-22T06:20:21;13.32;;;10.85;;
71106;SDS011;58763;47.982;11.516;2022-07-22T06:22:47;14.25;;;9.55;;
71106;SDS011;58763;47.982;11.516;2022-07-22T06:25:12;14.40;;;10.55;;
71106;SDS011;58763;47.982;11.516;2022-07-22T06:27:38;15.80;;;10.70;;
71106;SDS011;58763;47.982;11.516;2022-07-22T06:30:04;14.43;;;10.15;;
71106;SDS011;58763;47.982;11.516;2022-07-22T06:32:29;16.08;;;9.68;;
71106;SDS011;58763;47.982;11.516;2022-07-22T06:34:55;14.05;;;9.63;;
71106;SDS011;58763;47.982;11.516;2022-07-22T06:37:20;15.20;;;9.85;;
71106;SDS011;58763;47.982;11.516;2022-07-22T06:39:46;14.25;;;10.05;;
71106;SDS011;58763;47.982;11.516;2022-07-22T06:42:13;13.35;;;9.75;;
71106;SDS011;58763;47.982;11.516;2022-07-22T06:44:39;12.52;;;10.00;;
71106;SDS011;58763;47.982;11.516;2022-07-22T06:47:04;12.63;;;9.18;;
71106;SDS011;58763;47.982;11.516;2022-07-22T06:49:30;12.10;;;9.40;;
71106;SDS011;58763;47.982;11.516;2022-07-22T06:51:55;12.65;;;8.35;;
71106;SDS011;58763;47.982;11.516;2022-07-22T06:54:21;13.52;;;9.52;;
71106;SDS011;58763;47.982;11.516;2022-07-22T06:56:46;13.02;;;8.95;;
71106;SDS011;58763;47.982;11.516;2022-07-22T06:59:11;12.80;;;9.43;;
71106;SDS011;58763;47.982;11.516;2022-07-22T07:01:37;13.20;;;9.95;;
71106;SDS011;58763;47.982;11.516;2022-07-22T07:04:03;13.63;;;8.55;;
71106;SDS011;58763;47.982;11.516;2022-07-22T07:06:28;12.00;;;9.02;;
71106;SDS011;58763;47.982;11.516;2022-07-22T07:08:54;12.38;;;8.73;;
71106;SDS011;58763;47.982;11.516;2022-07-22T07:11:19;11.65;;;8.32;;
71106;SDS011;58763;47.982;11.516;2022-07-22T07:13:45;11.88;;;8.18;;
71106;SDS011;58763;47.982;11.516;2022-07-22T07:16:10;12.88;;;8.38;;
71106;SDS011;58763;47.982;11.516;2022-07-22T07:18:36;11.18;;;7.60;;
71106;SDS011;58763;47.982;11.516;2022-07-22T07:21:02;10.80;;;7.75;;
71106;SDS011;58763;47.982;11.516;2022-07-22T07:23:29;12.40;;;7.45;;
71106;SDS011;58763;47.982;11.516;2022-07-22T07:25:54;10.20;;;7.88;;
71106;SDS011;58763;47.982;11.516;2022-07-22T07:28:20;12.02;;;8.20;;
71106;SDS011;58763;47.982;11.516;2022-07-22T07:30:45;13.15;;;8.18;;
71106;SDS011;58763;47.982;11.516;2022-07-22T07:33:11;11.45;;;8.07;;
71106;SDS011;58763;47.982;11.516;2022-07-22T07:35:36;14.38;;;7.75;;
71106;SDS011;58763;47.982;11.516;2022-07-22T07:38:02;10.15;;;7.70;;
71106;SDS011;58763;47.982;11.516;2022-07-22T07:40:27;11.43;;;8.25;;
71106;SDS011;58763;47.982;11.516;2022-07-22T07:42:53;11.65;;;7.90;;
71106;SDS011;58763;47.982;11.516;2022-07-22T07:45:18;10.93;;;7.88;;
71106;SDS011;58763;47.982;11.516;2022-07-22T07:47:44;11.13;;;7.70;;
71106;SDS011;58763;47.982;11.516;2022-07-22T07:50:09;13.73;;;8.00;;
71106;SDS011;58763;47.982;11.516;2022-07-22T07:52:39;11.10;;;7.68;;
71106;SDS011;58763;47.982;11.516;2022-07-22T07:55:06;12.25;;;7.65;;
71106;SDS011;58763;47.982;11.516;2022-07-22T07:57:32;11.68;;;8.02;;
71106;SDS011;58763;47.982;11.516;2022-07-22T07:59:58;11.40;;;7.50;;
71106;SDS011;58763;47.982;11.516;2022-07-22T08:02:23;10.75;;;7.85;;
71106;SDS011;58763;47.982;11.516;2022-07-22T08:04:49;9.50;;;7.50;;
71106;SDS011;58763;47.982;11.516;2022-07-22T08:07:14;12.10;;;7.97;;
71106;SDS011;58763;47.982;11.516;2022-07-22T08:09:40;14.27;;;8.45;;
71106;SDS011;58763;47.982;11.516;2022-07-22T08:12:05;10.25;;;7.68;;
71106;SDS011;58763;47.982;11.516;2022-07-22T08:14:31;12.45;;;7.55;;
71106;SDS011;58763;47.982;11.516;2022-07-22T08:16:57;11.77;;;7.55;;
71106;SDS011;58763;47.982;11.516;2022-07-22T08:19:23;10.65;;;7.10;;
71106;SDS011;58763;47.982;11.516;2022-07-22T08:21:49;10.75;;;7.40;;
71106;SDS011;58763;47.982;11.516;2022-07-22T08:24:14;10.52;;;7.25;;
71106;SDS011;58763;47.982;11.516;2022-07-22T08:26:40;8.80;;;7.22;;
71106;SDS011;58763;47.982;11.516;2022-07-22T08:29:05;9.93;;;7.25;;
71106;SDS011;58763;47.982;11.516;2022-07-22T08:31:32;10.63;;;7.25;;
71106;SDS011;58763;47.982;11.516;2022-07-22T08:34:00;8.57;;;6.75;;
71106;SDS011;58763;47.982;11.516;2022-07-22T08:36:26;11.15;;;7.30;;
71106;SDS011;58763;47.982;11.516;2022-07-22T08:38:52;9.57;;;6.57;;
71106;SDS011;58763;47.982;11.516;2022-07-22T08:41:18;8.20;;;6.28;;
71106;SDS011;58763;47.982;11.516;2022-07-22T08:43:45;10.38;;;7.25;;
71106;SDS011;58763;47.982;11.516;2022-07-22T08:46:12;9.10;;;7.10;;
71106;SDS011;58763;47.982;11.516;2022-07-22T08:48:38;8.80;;;6.95;;
71106;SDS011;58763;47.982;11.516;2022-07-22T08:51:03;9.07;;;6.78;;
71106;SDS011;58763;47.982;11.516;2022-07-22T08:53:29;9.40;;;7.05;;
71106;SDS011;58763;47.982;11.516;2022-07-22T08:55:54;9.00;;;7.07;;
71106;SDS011;58763;47.982;11.516;2022-07-22T08:58:20;9.18;;;6.65;;
71106;SDS011;58763;47.982;11.516;2022-07-22T09:00:45;9.32;;;6.82;;
71106;SDS011;58763;47.982;11.516;2022-07-22T09:03:21;10.70;;;6.43;;
71106;SDS011;58763;47.982;11.516;2022-07-22T09:05:51;9.60;;;6.63;;
71106;SDS011;58763;47.982;11.516;2022-07-22T09:08:17;9.52;;;6.38;;
71106;SDS011;58763;47.982;11.516;2022-07-22T09:10:43;10.10;;;6.50;;
71106;SDS011;58763;47.982;11.516;2022-07-22T09:13:09;12.02;;;6.25;;
71106;SDS011;58763;47.982;11.516;2022-07-22T09:15:36;9.38;;;6.72;;
71106;SDS011;58763;47.982;11.516;2022-07-22T09:18:06;8.32;;;5.97;;
71106;SDS011;58763;47.982;11.516;2022-07-22T09:20:33;10.32;;;6.20;;
71106;SDS011;58763;47.982;11.516;2022-07-22T09:23:01;8.05;;;6.05;;
71106;SDS011;58763;47.982;11.516;2022-07-22T09:25:34;8.55;;;5.78;;
71106;SDS011;58763;47.982;11.516;2022-07-22T09:30:33;9.13;;;6.35;;
71106;SDS011;58763;47.982;11.516;2022-07-22T09:33:02;9.18;;;6.15;;
71106;SDS011;58763;47.982;11.516;2022-07-22T09:35:28;7.40;;;5.80;;
71106;SDS011;58763;47.982;11.516;2022-07-22T09:37:56;7.65;;;5.88;;
71106;SDS011;58763;47.982;11.516;2022-07-22T09:40:24;8.57;;;6.05;;
71106;SDS011;58763;47.982;11.516;2022-07-22T09:42:53;7.27;;;5.70;;
71106;SDS011;58763;47.982;11.516;2022-07-22T09:45:22;9.27;;;5.57;;
71106;SDS011;58763;47.982;11.516;2022-07-22T09:47:49;10.05;;;6.28;;
71106;SDS011;58763;47.982;11.516;2022-07-22T09:50:22;7.38;;;5.35;;
71106;SDS011;58763;47.982;11.516;2022-07-22T09:52:52;7.95;;;5.20;;
71106;SDS011;58763;47.982;11.516;2022-07-22T09:55:21;6.65;;;5.18;;
71106;SDS011;58763;47.982;11.516;2022-07-22T09:57:49;7.43;;;5.63;;
71106;SDS011;58763;47.982;11.516;2022-07-22T10:00:16;9.55;;;5.90;;
71106;SDS011;58763;47.982;11.516;2022-07-22T10:02:59;8.13;;;5.75;;
71106;SDS011;58763;47.982;11.516;2022-07-22T10:05:29;7.75;;;5.97;;
71106;SDS011;58763;47.982;11.516;2022-07-22T10:07:56;7.18;;;5.40;;
71106;SDS011;58763;47.982;11.516;2022-07-22T10:10:24;8.32;;;5.53;;
71106;SDS011;58763;47.982;11.516;2022-07-22T10:12:51;7.00;;;5.15;;
71106;SDS011;58763;47.982;11.516;2022-07-22T10:15:20;7.35;;;5.43;;
71106;SDS011;58763;47.982;11.516;2022-07-22T10:17:49;8.52;;;5.50;;
71106;SDS011;58763;47.982;11.516;2022-07-22T10:20:20;6.35;;;4.95;;
71106;SDS011;58763;47.982;11.516;2022-07-22T10:22:48;6.80;;;5.05;;
71106;SDS011;58763;47.982;11.516;2022-07-22T10:25:18;7.53;;;5.60;;
71106;SDS011;58763;47.982;11.516;2022-07-22T10:27:49;7.72;;;5.50;;
71106;SDS011;58763;47.982;11.516;2022-07-22T10:30:19;6.20;;;4.93;;
71106;SDS011;58763;47.982;11.516;2022-07-22T10:33:08;6.50;;;4.97;;
71106;SDS011;58763;47.982;11.516;2022-07-22T10:35:35;6.68;;;5.05;;
71106;SDS011;58763;47.982;11.516;2022-07-22T10:38:06;7.53;;;5.13;;
71106;SDS011;58763;47.982;11.516;2022-07-22T10:40:51;7.80;;;5.47;;
71106;SDS011;58763;47.982;11.516;2022-07-22T10:43:29;9.93;;;5.85;;
71106;SDS011;58763;47.982;11.516;2022-07-22T10:51:08;8.30;;;5.70;;
71106;SDS011;58763;47.982;11.516;2022-07-22T10:53:42;7.40;;;5.38;;
71106;SDS011;58763;47.982;11.516;2022-07-22T10:56:26;8.30;;;5.50;;
71106;SDS011;58763;47.982;11.516;2022-07-22T10:59:10;7.45;;;5.70;;
71106;SDS011;58763;47.982;11.516;2022-07-22T11:01:37;9.32;;;5.50;;
71106;SDS011;58763;47.982;11.516;2022-07-22T11:06:35;7.70;;;5.38;;
71106;SDS011;58763;47.982;11.516;2022-07-22T11:09:02;7.72;;;5.68;;
71106;SDS011;58763;47.982;11.516;2022-07-22T11:16:59;7.10;;;5.65;;
71106;SDS011;58763;47.982;11.516;2022-07-22T11:19:29;7.80;;;6.00;;
71106;SDS011;58763;47.982;11.516;2022-07-22T11:22:04;7.70;;;5.78;;
71106;SDS011;58763;47.982;11.516;2022-07-22T11:24:34;7.57;;;5.80;;
71106;SDS011;58763;47.982;11.516;2022-07-22T11:27:01;7.55;;;5.60;;
71106;SDS011;58763;47.982;11.516;2022-07-22T11:29:28;8.13;;;5.38;;
71106;SDS011;58763;47.982;11.516;2022-07-22T11:31:57;9.07;;;5.60;;
71106;SDS011;58763;47.982;11.516;2022-07-22T11:34:24;7.75;;;5.70;;
71106;SDS011;58763;47.982;11.516;2022-07-22T11:36:50;7.90;;;5.82;;
71106;SDS011;58763;47.982;11.516;2022-07-22T11:39:18;7.55;;;5.80;;
71106;SDS011;58763;47.982;11.516;2022-07-22T11:41:45;7.57;;;5.32;;
71106;SDS011;58763;47.982;11.516;2022-07-22T11:44:11;9.02;;;5.82;;
71106;SDS011;58763;47.982;11.516;2022-07-22T11:46:38;8.48;;;5.93;;
71106;SDS011;58763;47.982;11.516;2022-07-22T11:49:05;7.22;;;5.50;;
71106;SDS011;58763;47.982;11.516;2022-07-22T11:51:31;9.63;;;5.68;;
71106;SDS011;58763;47.982;11.516;2022-07-22T11:53:58;6.25;;;5.47;;
71106;SDS011;58763;47.982;11.516;2022-07-22T11:56:24;6.97;;;5.60;;
71106;SDS011;58763;47.982;11.516;2022-07-22T11:58:51;8.00;;;5.60;;
71106;SDS011;58763;47.982;11.516;2022-07-22T12:01:22;8.75;;;6.05;;
71106;SDS011;58763;47.982;11.516;2022-07-22T12:03:51;9.35;;;5.57;;
71106;SDS011;58763;47.982;11.516;2022-07-22T12:06:21;7.07;;;5.80;;
71106;SDS011;58763;47.982;11.516;2022-07-22T12:08:49;6.78;;;5.53;;
71106;SDS011;58763;47.982;11.516;2022-07-22T12:11:17;7.50;;;5.95;;
71106;SDS011;58763;47.982;11.516;2022-07-22T12:13:45;8.15;;;6.22;;
71106;SDS011;58763;47.982;11.516;2022-07-22T12:18:50;7.35;;;5.85;;
71106;SDS011;58763;47.982;11.516;2022-07-22T12:21:17;6.68;;;5.28;;
71106;SDS011;58763;47.982;11.516;2022-07-22T12:23:48;8.18;;;5.13;;
71106;SDS011;58763;47.982;11.516;2022-07-22T12:26:16;7.30;;;5.55;;
71106;SDS011;58763;47.982;11.516;2022-07-22T12:28:41;6.75;;;5.28;;
71106;SDS011;58763;47.982;11.516;2022-07-22T12:31:07;8.60;;;5.88;;
71106;SDS011;58763;47.982;11.516;2022-07-22T12:33:32;8.35;;;6.30;;
71106;SDS011;58763;47.982;11.516;2022-07-22T12:36:02;9.18;;;5.97;;
71106;SDS011;58763;47.982;11.516;2022-07-22T12:38:28;8.50;;;6.07;;
71106;SDS011;58763;47.982;11.516;2022-07-22T12:40:54;9.10;;;6.15;;
71106;SDS011;58763;47.982;11.516;2022-07-22T12:43:23;10.05;;;5.90;;
71106;SDS011;58763;47.982;11.516;2022-07-22T12:45:49;8.30;;;6.10;;
71106;SDS011;58763;47.982;11.516;2022-07-22T12:48:15;8.05;;;5.78;;
71106;SDS011;58763;47.982;11.516;2022-07-22T12:50:56;6.97;;;5.57;;
71106;SDS011;58763;47.982;11.516;2022-07-22T12:53:23;9.15;;;6.00;;
71106;SDS011;58763;47.982;11.516;2022-07-22T12:55:55;8.60;;;5.95;;
71106;SDS011;58763;47.982;11.516;2022-07-22T12:58:22;7.28;;;5.88;;
71106;SDS011;58763;47.982;11.516;2022-07-22T13:00:50;8.75;;;6.18;;
71106;SDS011;58763;47.982;11.516;2022-07-22T13:03:18;8.80;;;6.00;;
71106;SDS011;58763;47.982;11.516;2022-07-22T13:05:48;7.60;;;5.60;;
71106;SDS011;58763;47.982;11.516;2022-07-22T13:08:14;8.05;;;6.07;;
71106;SDS011;58763;47.982;11.516;2022-07-22T13:10:40;8.05;;;5.90;;
71106;SDS011;58763;47.982;11.516;2022-07-22T13:13:05;9.77;;;5.45;;
71106;SDS011;58763;47.982;11.516;2022-07-22T13:15:32;7.45;;;5.70;;
71106;SDS011;58763;47.982;11.516;2022-07-22T13:17:57;7.82;;;5.78;;
71106;SDS011;58763;47.982;11.516;2022-07-22T13:20:22;7.55;;;6.00;;
71106;SDS011;58763;47.982;11.516;2022-07-22T13:22:48;8.75;;;5.78;;
71106;SDS011;58763;47.982;11.516;2022-07-22T13:25:13;8.48;;;5.95;;
71106;SDS011;58763;47.982;11.516;2022-07-22T13:27:39;8.88;;;5.68;;
71106;SDS011;58763;47.982;11.516;2022-07-22T13:30:05;8.15;;;6.00;;
71106;SDS011;58763;47.982;11.516;2022-07-22T13:32:32;7.32;;;5.63;;
71106;SDS011;58763;47.982;11.516;2022-07-22T13:34:57;9.15;;;5.68;;
71106;SDS011;58763;47.982;11.516;2022-07-22T13:37:23;7.15;;;5.28;;
71106;SDS011;58763;47.982;11.516;2022-07-22T13:39:49;7.25;;;5.68;;
71106;SDS011;58763;47.982;11.516;2022-07-22T13:42:15;8.48;;;5.78;;
71106;SDS011;58763;47.982;11.516;2022-07-22T13:44:47;7.95;;;5.45;;
71106;SDS011;58763;47.982;11.516;2022-07-22T13:47:16;7.72;;;5.90;;
71106;SDS011;58763;47.982;11.516;2022-07-22T13:49:42;8.27;;;5.95;;
71106;SDS011;58763;47.982;11.516;2022-07-22T13:52:09;7.53;;;5.22;;
71106;SDS011;58763;47.982;11.516;2022-07-22T13:54:35;6.85;;;5.47;;
71106;SDS011;58763;47.982;11.516;2022-07-22T13:57:00;6.65;;;5.03;;
71106;SDS011;58763;47.982;11.516;2022-07-22T13:59:28;8.55;;;5.60;;
71106;SDS011;58763;47.982;11.516;2022-07-22T14:01:54;7.85;;;5.45;;
71106;SDS011;58763;47.982;11.516;2022-07-22T14:04:20;6.35;;;5.32;;
71106;SDS011;58763;47.982;11.516;2022-07-22T14:06:45;8.95;;;5.60;;
71106;SDS011;58763;47.982;11.516;2022-07-22T14:09:11;8.68;;;5.90;;
71106;SDS011;58763;47.982;11.516;2022-07-22T14:11:36;7.05;;;5.68;;
71106;SDS011;58763;47.982;11.516;2022-07-22T14:14:01;6.68;;;5.53;;
71106;SDS011;58763;47.982;11.516;2022-07-22T14:16:27;6.88;;;5.15;;
71106;SDS011;58763;47.982;11.516;2022-07-22T14:18:59;6.57;;;5.30;;
71106;SDS011;58763;47.982;11.516;2022-07-22T14:21:25;8.13;;;5.50;;
71106;SDS011;58763;47.982;11.516;2022-07-22T14:23:50;7.57;;;5.43;;
71106;SDS011;58763;47.982;11.516;2022-07-22T14:26:15;8.82;;;5.90;;
71106;SDS011;58763;47.982;11.516;2022-07-22T14:28:41;8.35;;;5.53;;
71106;SDS011;58763;47.982;11.516;2022-07-22T14:31:06;7.07;;;4.82;;
71106;SDS011;58763;47.982;11.516;2022-07-22T14:33:32;7.40;;;5.28;;
71106;SDS011;58763;47.982;11.516;2022-07-22T14:35:57;7.25;;;5.10;;